createdAt,value
2019-04-30T00:00:45.502Z,9.09
2019-04-30T00:03:32.124Z,9.10
2019-04-30T00:06:01.817Z,9.10
2019-04-30T00:08:35.595Z,9.09
2019-04-30T00:11:02.941Z,9.07
2019-04-30T00:13:32.567Z,9.03
2019-04-30T00:16:02.193Z,8.99
2019-04-30T00:18:35.892Z,8.98
2019-04-30T00:21:05.430Z,8.98
2019-04-30T00:23:36.101Z,8.94
2019-04-30T00:26:10.319Z,8.92
2019-04-30T00:28:39.367Z,8.90
2019-04-30T00:31:10.002Z,8.87
2019-04-30T00:33:39.691Z,8.87
2019-04-30T00:36:09.562Z,8.86
2019-04-30T00:38:39.178Z,8.82
2019-04-30T00:41:10.327Z,8.74
2019-04-30T00:43:46.391Z,8.73
2019-04-30T00:46:11.426Z,8.72
2019-04-30T00:48:41.172Z,8.72
2019-04-30T00:51:18.236Z,8.70
2019-04-30T00:53:43.922Z,8.69
2019-04-30T00:56:15.773Z,8.69
2019-04-30T00:58:45.326Z,8.70
2019-04-30T01:01:16.591Z,8.70
2019-04-30T01:03:55.845Z,8.70
2019-04-30T01:06:28.576Z,8.67
2019-04-30T01:08:58.298Z,8.62
2019-04-30T01:11:27.972Z,8.59
2019-04-30T01:13:59.035Z,8.55
2019-04-30T01:16:32.935Z,8.52
2019-04-30T01:19:01.186Z,8.52
2019-04-30T01:21:31.702Z,8.47
2019-04-30T01:24:02.167Z,8.38
2019-04-30T01:26:33.381Z,8.30
2019-04-30T01:29:04.635Z,8.06
2019-04-30T01:31:37.304Z,7.99
2019-04-30T01:34:10.386Z,8.02
2019-04-30T01:36:39.311Z,8.07
2019-04-30T01:39:11.083Z,7.94
2019-04-30T01:41:40.779Z,7.87
2019-04-30T01:44:11.934Z,7.83
2019-04-30T01:46:43.279Z,7.87
2019-04-30T01:49:14.164Z,7.93
2019-04-30T01:51:43.790Z,7.97
2019-04-30T01:54:20.836Z,8.01
2019-04-30T01:56:57.184Z,8.04
2019-04-30T01:59:34.392Z,8.05
2019-04-30T02:02:04.328Z,8.05
2019-04-30T02:04:33.955Z,8.05
2019-04-30T02:07:03.582Z,8.05
2019-04-30T02:09:33.268Z,8.00
2019-04-30T02:12:02.885Z,7.80
2019-04-30T02:14:32.982Z,7.56
2019-04-30T02:17:02.999Z,7.54
2019-04-30T02:19:32.696Z,7.61
2019-04-30T02:22:02.316Z,7.71
2019-04-30T02:24:31.970Z,7.72
2019-04-30T02:27:01.650Z,7.72
2019-04-30T02:29:31.276Z,7.75
2019-04-30T02:32:00.968Z,7.76
2019-04-30T02:34:44.080Z,7.78
2019-04-30T02:37:13.965Z,7.76
2019-04-30T02:39:44.180Z,7.73
2019-04-30T02:42:14.322Z,7.71
2019-04-30T02:44:45.320Z,7.70
2019-04-30T02:47:16.015Z,7.68
2019-04-30T02:49:52.904Z,7.65
2019-04-30T02:52:19.742Z,7.62
2019-04-30T02:54:52.581Z,7.60
2019-04-30T02:57:23.384Z,7.38
2019-04-30T03:00:06.714Z,7.20
2019-04-30T03:02:39.148Z,7.11
2019-04-30T03:05:12.877Z,7.13
2019-04-30T03:07:40.675Z,7.08
2019-04-30T03:10:10.797Z,7.05
2019-04-30T03:12:40.834Z,7.08
2019-04-30T03:15:10.890Z,7.00
2019-04-30T03:17:42.231Z,6.89
2019-04-30T03:20:34.716Z,6.87
2019-04-30T03:23:02.050Z,6.82
2019-04-30T03:25:29.796Z,6.76
2019-04-30T03:28:00.329Z,6.77
2019-04-30T03:30:31.921Z,6.86
2019-04-30T03:33:02.926Z,6.93
2019-04-30T03:35:32.985Z,6.99
2019-04-30T03:38:02.577Z,7.03
2019-04-30T03:40:32.264Z,7.07
2019-04-30T03:43:03.167Z,7.10
2019-04-30T03:45:33.980Z,7.15
2019-04-30T03:48:03.671Z,7.14
2019-04-30T03:50:49.295Z,7.08
2019-04-30T03:53:05.694Z,7.05
2019-04-30T03:55:35.316Z,7.00
2019-04-30T03:58:05.000Z,6.79
2019-04-30T04:00:51.261Z,6.68
2019-04-30T04:03:21.171Z,6.70
2019-04-30T04:06:09.418Z,6.81
2019-04-30T04:08:43.221Z,6.91
2019-04-30T04:11:13.861Z,7.00
2019-04-30T04:13:43.573Z,7.05
2019-04-30T04:16:13.258Z,7.10
2019-04-30T04:18:42.906Z,7.16
2019-04-30T04:21:16.681Z,7.19
2019-04-30T04:23:43.909Z,7.22
2019-04-30T04:26:13.541Z,7.26
2019-04-30T04:28:43.703Z,7.31
2019-04-30T04:31:14.262Z,7.35
2019-04-30T04:33:43.984Z,7.38
2019-04-30T04:36:13.656Z,7.39
2019-04-30T04:38:43.370Z,7.42
2019-04-30T04:41:13.282Z,7.47
2019-04-30T04:43:43.960Z,7.53
2019-04-30T04:46:13.632Z,7.60
2019-04-30T04:48:43.240Z,7.63
2019-04-30T04:51:27.645Z,7.67
2019-04-30T04:53:46.291Z,7.71
2019-04-30T04:56:18.963Z,7.75
2019-04-30T04:58:50.224Z,7.79
2019-04-30T05:01:20.391Z,7.83
2019-04-30T05:03:50.260Z,7.86
2019-04-30T05:06:22.108Z,7.88
2019-04-30T05:08:51.463Z,7.92
2019-04-30T05:11:21.079Z,7.96
2019-04-30T05:13:51.577Z,7.98
2019-04-30T05:16:21.250Z,8.01
2019-04-30T05:18:50.879Z,8.04
2019-04-30T05:21:20.580Z,8.06
2019-04-30T05:23:50.512Z,8.11
2019-04-30T05:26:22.693Z,8.11
2019-04-30T05:28:52.979Z,8.14
2019-04-30T05:31:22.841Z,8.22
2019-04-30T05:33:53.304Z,8.28
2019-04-30T05:36:22.936Z,8.35
2019-04-30T05:38:52.611Z,8.43
2019-04-30T05:41:22.323Z,8.47
2019-04-30T05:43:52.619Z,8.52
2019-04-30T05:46:22.888Z,8.53
2019-04-30T05:48:52.531Z,8.58
2019-04-30T05:51:22.552Z,8.62
2019-04-30T05:53:52.260Z,8.70
2019-04-30T05:56:21.940Z,8.76
2019-04-30T05:58:51.575Z,8.85
2019-04-30T06:01:24.183Z,8.92
2019-04-30T06:03:52.875Z,8.99
2019-04-30T06:06:22.785Z,9.04
2019-04-30T06:09:04.620Z,9.09
2019-04-30T06:11:32.684Z,9.13
2019-04-30T06:14:03.991Z,9.19
2019-04-30T06:16:33.629Z,9.23
2019-04-30T06:19:03.243Z,9.31
2019-04-30T06:21:32.905Z,9.32
2019-04-30T06:24:02.832Z,9.34
2019-04-30T06:26:32.565Z,9.39
2019-04-30T06:29:02.690Z,9.45
2019-04-30T06:31:37.302Z,9.47
2019-04-30T06:34:04.131Z,9.52
2019-04-30T06:36:33.783Z,9.56
2019-04-30T06:39:03.677Z,9.60
2019-04-30T06:41:33.386Z,9.65
2019-04-30T06:44:03.489Z,9.73
2019-04-30T06:46:33.183Z,9.79
2019-04-30T06:49:03.014Z,9.84
2019-04-30T06:51:32.665Z,9.89
2019-04-30T06:54:02.288Z,9.94
2019-04-30T06:56:31.946Z,9.99
2019-04-30T06:59:01.613Z,10.05
2019-04-30T07:01:31.221Z,10.09
2019-04-30T07:04:01.106Z,10.13
2019-04-30T07:06:36.760Z,10.15
2019-04-30T07:09:08.782Z,10.19
2019-04-30T07:11:40.286Z,10.21
2019-04-30T07:14:10.196Z,10.26
2019-04-30T07:16:39.829Z,10.33
2019-04-30T07:19:09.499Z,10.42
2019-04-30T07:21:42.900Z,10.51
2019-04-30T07:24:10.455Z,10.56
2019-04-30T07:26:40.137Z,10.61
2019-04-30T07:29:11.616Z,10.68
2019-04-30T07:31:41.251Z,10.76
2019-04-30T07:34:10.934Z,10.82
2019-04-30T07:36:48.422Z,10.88
2019-04-30T07:39:12.937Z,10.94
2019-04-30T07:41:43.131Z,10.96
2019-04-30T07:44:29.463Z,10.97
2019-04-30T07:46:45.463Z,10.98
2019-04-30T07:49:15.433Z,11.04
2019-04-30T07:51:45.639Z,11.15
2019-04-30T07:54:15.832Z,11.22
2019-04-30T07:56:45.545Z,11.28
2019-04-30T07:59:15.409Z,11.30
2019-04-30T08:02:03.760Z,11.35
2019-04-30T08:04:18.834Z,11.38
2019-04-30T08:06:49.886Z,11.41
2019-04-30T08:09:22.205Z,11.45
2019-04-30T08:11:52.236Z,11.51
2019-04-30T08:14:24.474Z,11.54
2019-04-30T08:16:53.186Z,11.59
2019-04-30T08:19:22.834Z,11.65
2019-04-30T08:21:52.476Z,11.73
2019-04-30T08:24:22.126Z,11.81
2019-04-30T08:26:52.067Z,11.83
2019-04-30T08:29:21.731Z,11.88
2019-04-30T08:31:51.450Z,11.96
2019-04-30T08:34:21.103Z,11.98
2019-04-30T08:36:51.493Z,11.97
2019-04-30T08:39:21.299Z,11.98
2019-04-30T08:41:52.614Z,12.01
2019-04-30T08:44:22.261Z,12.03
2019-04-30T08:46:53.468Z,12.06
2019-04-30T08:49:24.530Z,12.06
2019-04-30T08:51:54.399Z,12.13
2019-04-30T08:54:24.035Z,12.21
2019-04-30T08:56:53.732Z,12.22
2019-04-30T08:59:24.329Z,12.18
2019-04-30T09:01:54.011Z,12.18
2019-04-30T09:04:25.313Z,12.17
2019-04-30T09:06:54.948Z,12.24
2019-04-30T09:09:25.579Z,12.29
2019-04-30T09:11:58.983Z,12.31
2019-04-30T09:14:29.741Z,12.33
2019-04-30T09:17:00.253Z,12.39
2019-04-30T09:19:30.131Z,12.48
2019-04-30T09:22:24.801Z,12.55
2019-04-30T09:24:54.457Z,12.67
2019-04-30T09:27:24.444Z,12.76
2019-04-30T09:29:54.151Z,12.84
2019-04-30T09:32:23.854Z,12.86
2019-04-30T09:34:53.842Z,12.84
2019-04-30T09:37:23.474Z,12.84
2019-04-30T09:39:53.138Z,12.84
2019-04-30T09:42:22.777Z,12.88
2019-04-30T09:44:54.848Z,12.92
2019-04-30T09:47:24.466Z,12.98
2019-04-30T09:49:56.222Z,13.02
2019-04-30T09:52:25.413Z,13.04
2019-04-30T09:54:55.073Z,13.07
2019-04-30T09:57:24.698Z,13.09
2019-04-30T09:59:54.362Z,13.08
2019-04-30T10:02:24.390Z,13.05
2019-04-30T10:04:54.701Z,13.07
2019-04-30T10:07:25.220Z,13.15
2019-04-30T10:09:54.911Z,13.21
2019-04-30T10:12:24.620Z,13.27
2019-04-30T10:14:54.516Z,13.30
2019-04-30T10:17:40.890Z,13.36
2019-04-30T10:20:12.623Z,13.45
2019-04-30T10:22:42.327Z,13.48
2019-04-30T10:25:12.518Z,13.46
2019-04-30T10:27:42.519Z,13.45
2019-04-30T10:30:13.544Z,13.50
2019-04-30T10:32:43.316Z,13.57
2019-04-30T10:35:14.274Z,13.61
2019-04-30T10:37:44.172Z,13.59
2019-04-30T10:40:14.286Z,13.57
2019-04-30T10:42:44.078Z,13.55
2019-04-30T10:45:14.477Z,13.60
2019-04-30T10:47:44.494Z,13.66
2019-04-30T10:50:14.354Z,13.72
2019-04-30T10:52:44.994Z,13.80
2019-04-30T10:55:14.790Z,13.96
2019-04-30T10:57:44.691Z,14.15
2019-04-30T11:00:15.085Z,14.34
2019-04-30T11:02:44.816Z,14.49
2019-04-30T11:05:14.985Z,14.57
2019-04-30T11:07:44.800Z,14.64
2019-04-30T11:10:15.297Z,14.72
2019-04-30T11:12:45.039Z,14.83
2019-04-30T11:15:20.642Z,14.93
2019-04-30T11:17:49.705Z,14.98
2019-04-30T11:20:22.055Z,15.05
2019-04-30T11:22:53.092Z,15.16
2019-04-30T11:25:23.516Z,15.33
2019-04-30T11:27:54.112Z,15.47
2019-04-30T11:30:25.086Z,15.67
2019-04-30T11:32:55.219Z,15.80
2019-04-30T11:35:25.068Z,15.90
2019-04-30T11:37:54.828Z,15.99
2019-04-30T11:40:34.526Z,16.07
2019-04-30T11:42:58.748Z,16.20
2019-04-30T11:45:48.043Z,16.29
2019-04-30T11:48:19.457Z,16.35
2019-04-30T11:50:49.831Z,16.42
2019-04-30T11:53:25.415Z,16.42
2019-04-30T11:55:50.824Z,16.45
2019-04-30T11:58:21.945Z,16.50
2019-04-30T12:00:51.994Z,16.57
2019-04-30T12:03:23.025Z,16.62
2019-04-30T12:05:53.478Z,16.75
2019-04-30T12:08:29.342Z,16.97
2019-04-30T12:11:03.743Z,17.22
2019-04-30T12:13:33.560Z,17.46
2019-04-30T12:16:04.509Z,17.74
2019-04-30T12:18:34.547Z,18.08
2019-04-30T12:21:04.448Z,18.43
2019-04-30T12:23:34.145Z,18.72
2019-04-30T12:26:03.763Z,19.03
2019-04-30T12:28:33.383Z,19.40
2019-04-30T12:31:05.783Z,19.83
2019-04-30T12:33:34.364Z,20.11
2019-04-30T12:36:06.399Z,20.52
2019-04-30T12:38:36.022Z,21.03
2019-04-30T12:41:06.004Z,21.60
2019-04-30T12:43:35.792Z,22.10
2019-04-30T12:46:05.724Z,22.55
2019-04-30T12:48:39.596Z,22.96
2019-04-30T12:51:23.231Z,23.07
2019-04-30T12:53:54.522Z,22.92
2019-04-30T12:56:40.849Z,22.50
2019-04-30T12:59:10.475Z,22.58
2019-04-30T13:01:42.907Z,23.27
2019-04-30T13:04:16.453Z,23.87
2019-04-30T13:06:48.388Z,24.28
2019-04-30T13:09:20.150Z,24.64
2019-04-30T13:11:50.726Z,24.83
2019-04-30T13:14:21.541Z,25.37
2019-04-30T13:16:51.476Z,26.24
2019-04-30T13:19:21.200Z,26.54
2019-04-30T13:21:51.900Z,26.98
2019-04-30T13:24:21.824Z,27.61
2019-04-30T13:26:51.508Z,28.06
2019-04-30T13:29:34.529Z,28.34
2019-04-30T13:32:04.339Z,28.30
2019-04-30T13:34:47.498Z,27.99
2019-04-30T13:37:19.188Z,28.38
2019-04-30T13:39:56.444Z,29.42
2019-04-30T13:42:29.373Z,30.52
2019-04-30T13:44:59.321Z,31.55
2019-04-30T13:47:29.340Z,32.65
2019-04-30T13:49:59.450Z,33.36
2019-04-30T13:52:30.952Z,33.43
2019-04-30T13:55:00.624Z,32.10
2019-04-30T13:57:30.310Z,30.18
2019-04-30T13:59:59.934Z,28.57
2019-04-30T14:02:31.235Z,27.40
2019-04-30T14:05:02.556Z,26.64
2019-04-30T14:07:39.971Z,26.02
2019-04-30T14:10:10.197Z,25.44
2019-04-30T14:12:41.425Z,25.01
2019-04-30T14:15:11.879Z,24.97
2019-04-30T14:17:41.508Z,25.05
2019-04-30T14:20:11.346Z,24.95
2019-04-30T14:22:40.964Z,24.59
2019-04-30T14:25:11.524Z,24.26
2019-04-30T14:27:49.492Z,24.00
2019-04-30T14:30:14.727Z,23.88
2019-04-30T14:32:44.356Z,23.81
2019-04-30T14:35:14.287Z,23.72
2019-04-30T14:37:43.992Z,23.60
2019-04-30T14:40:15.705Z,23.50
2019-04-30T14:42:50.590Z,23.37
2019-04-30T14:45:22.676Z,23.27
2019-04-30T14:47:55.204Z,23.21
2019-04-30T14:50:30.081Z,23.18
2019-04-30T14:53:07.302Z,23.19
2019-04-30T14:55:39.366Z,23.07
2019-04-30T14:58:25.727Z,23.00
2019-04-30T15:00:59.755Z,22.96
2019-04-30T15:03:33.951Z,22.90
2019-04-30T15:06:03.942Z,22.90
2019-04-30T15:08:33.789Z,22.91
2019-04-30T15:11:03.696Z,22.95
2019-04-30T15:13:33.307Z,22.94
2019-04-30T15:16:02.998Z,22.89
2019-04-30T15:18:32.609Z,22.89
2019-04-30T15:21:02.235Z,22.89
2019-04-30T15:23:36.215Z,22.91
2019-04-30T15:26:05.839Z,22.84
2019-04-30T15:28:36.317Z,22.76
2019-04-30T15:31:06.145Z,22.74
2019-04-30T15:33:37.418Z,22.70
2019-04-30T15:36:07.137Z,22.70
2019-04-30T15:38:54.591Z,22.65
2019-04-30T15:41:24.360Z,22.62
2019-04-30T15:43:54.244Z,22.69
2019-04-30T15:46:24.031Z,22.66
2019-04-30T15:48:53.661Z,22.66
2019-04-30T15:51:23.689Z,22.70
2019-04-30T15:53:53.909Z,22.70
2019-04-30T15:56:34.371Z,22.77
2019-04-30T15:59:09.259Z,22.82
2019-04-30T16:01:43.549Z,22.86
2019-04-30T16:04:15.156Z,22.93
2019-04-30T16:06:45.161Z,22.87
2019-04-30T16:09:31.810Z,22.59
2019-04-30T16:12:15.372Z,22.38
2019-04-30T16:14:45.309Z,22.18
2019-04-30T16:17:16.571Z,22.15
2019-04-30T16:19:46.264Z,21.93
2019-04-30T16:22:16.025Z,21.71
2019-04-30T16:24:45.894Z,21.61
2019-04-30T16:27:15.557Z,21.55
2019-04-30T16:29:45.212Z,21.33
2019-04-30T16:32:15.665Z,20.98
2019-04-30T16:34:45.285Z,20.63
2019-04-30T16:37:15.415Z,20.28
2019-04-30T16:39:45.306Z,19.99
2019-04-30T16:42:14.934Z,19.75
2019-04-30T16:44:44.646Z,19.50
2019-04-30T16:47:16.792Z,19.26
2019-04-30T16:49:45.704Z,19.06
2019-04-30T16:52:15.365Z,18.90
2019-04-30T16:54:44.987Z,18.76
2019-04-30T16:57:14.682Z,18.63
2019-04-30T16:59:44.429Z,18.51
2019-04-30T17:02:14.475Z,18.39
2019-04-30T17:04:49.460Z,18.27
2019-04-30T17:07:35.885Z,18.17
2019-04-30T17:10:09.029Z,18.07
2019-04-30T17:12:43.360Z,17.95
2019-04-30T17:15:14.769Z,17.83
2019-04-30T17:17:44.417Z,17.74
2019-04-30T17:20:14.524Z,17.65
2019-04-30T17:22:44.222Z,17.57
2019-04-30T17:25:14.208Z,17.46
2019-04-30T17:27:43.893Z,17.39
2019-04-30T17:30:14.139Z,17.31
2019-04-30T17:32:43.798Z,17.26
2019-04-30T17:35:13.735Z,17.23
2019-04-30T17:37:43.366Z,17.17
2019-04-30T17:40:13.252Z,17.11
2019-04-30T17:42:42.940Z,17.04
2019-04-30T17:45:14.311Z,16.96
2019-04-30T17:47:43.944Z,16.86
2019-04-30T17:50:14.146Z,16.72
2019-04-30T17:52:43.800Z,16.61
2019-04-30T17:55:13.554Z,16.51
2019-04-30T17:57:43.244Z,16.40
2019-04-30T18:00:20.012Z,16.33
2019-04-30T18:02:50.440Z,16.27
2019-04-30T18:05:20.179Z,15.95
2019-04-30T18:07:50.093Z,15.88
2019-04-30T18:10:21.578Z,15.86
2019-04-30T18:12:51.927Z,15.87
2019-04-30T18:15:23.459Z,15.90
2019-04-30T18:17:54.752Z,15.93
2019-04-30T18:20:39.196Z,15.92
2019-04-30T18:23:12.983Z,15.86
2019-04-30T18:25:44.242Z,15.82
2019-04-30T18:28:13.928Z,15.78
2019-04-30T18:30:43.547Z,15.71
2019-04-30T18:33:14.026Z,15.57
2019-04-30T18:35:43.711Z,15.48
2019-04-30T18:38:13.343Z,15.41
2019-04-30T18:40:42.997Z,15.37
2019-04-30T18:43:12.838Z,15.33
2019-04-30T18:45:42.457Z,15.27
2019-04-30T18:48:12.158Z,15.16
2019-04-30T18:50:41.880Z,15.08
2019-04-30T18:53:13.164Z,15.00
2019-04-30T18:55:42.831Z,14.89
2019-04-30T18:58:12.568Z,14.84
2019-04-30T19:00:44.172Z,14.80
2019-04-30T19:03:13.831Z,14.78
2019-04-30T19:05:45.451Z,14.75
2019-04-30T19:08:19.416Z,14.72
2019-04-30T19:11:05.596Z,14.65
2019-04-30T19:13:53.123Z,14.58
2019-04-30T19:16:39.989Z,14.50
2019-04-30T19:19:19.551Z,14.44
2019-04-30T19:21:49.629Z,14.36
2019-04-30T19:24:20.894Z,14.22
2019-04-30T19:26:50.525Z,14.12
2019-04-30T19:29:20.199Z,14.08
2019-04-30T19:31:49.846Z,14.02
2019-04-30T19:34:19.834Z,13.80
2019-04-30T19:36:49.533Z,13.72
2019-04-30T19:39:20.614Z,13.62
2019-04-30T19:41:50.275Z,13.61
2019-04-30T19:44:21.960Z,13.56
2019-04-30T19:46:51.616Z,13.53
2019-04-30T19:49:21.238Z,13.47
2019-04-30T19:51:53.154Z,13.32
2019-04-30T19:54:22.950Z,13.25
2019-04-30T19:56:52.573Z,13.22
2019-04-30T19:59:22.440Z,13.15
2019-04-30T20:01:52.158Z,13.07
2019-04-30T20:04:32.805Z,13.01
2019-04-30T20:06:53.856Z,12.87
2019-04-30T20:09:23.566Z,12.48
2019-04-30T20:11:53.202Z,12.32
2019-04-30T20:14:23.239Z,12.21
2019-04-30T20:16:52.890Z,12.21
2019-04-30T20:19:23.324Z,12.23
2019-04-30T20:21:54.004Z,12.22
2019-04-30T20:24:23.806Z,12.24
2019-04-30T20:27:04.240Z,12.27
2019-04-30T20:29:25.986Z,12.31
2019-04-30T20:31:55.643Z,12.28
2019-04-30T20:34:25.319Z,12.27
2019-04-30T20:36:54.967Z,12.26
2019-04-30T20:39:34.701Z,12.17
2019-04-30T20:42:04.907Z,11.89
2019-04-30T20:44:34.551Z,11.73
2019-04-30T20:47:04.465Z,11.53
2019-04-30T20:49:34.198Z,11.30
2019-04-30T20:52:03.902Z,11.10
2019-04-30T20:54:33.919Z,10.86
2019-04-30T20:57:03.929Z,10.85
2019-04-30T20:59:33.574Z,10.75
2019-04-30T21:02:03.491Z,10.84
2019-04-30T21:04:33.178Z,10.89
2019-04-30T21:07:02.796Z,10.95
2019-04-30T21:09:32.446Z,10.94
2019-04-30T21:12:02.143Z,10.96
2019-04-30T21:14:31.786Z,10.75
2019-04-30T21:17:01.421Z,10.67
2019-04-30T21:19:31.107Z,10.60
2019-04-30T21:22:00.762Z,10.44
2019-04-30T21:24:30.408Z,10.31
2019-04-30T21:27:00.079Z,10.35
2019-04-30T21:29:29.715Z,10.36
2019-04-30T21:32:00.992Z,10.50
2019-04-30T21:34:32.353Z,10.59
2019-04-30T21:37:03.631Z,10.70
2019-04-30T21:39:33.275Z,10.79
2019-04-30T21:42:02.946Z,10.85
2019-04-30T21:44:32.651Z,10.88
2019-04-30T21:47:02.592Z,10.93
2019-04-30T21:49:32.299Z,10.95
2019-04-30T21:52:01.973Z,10.95
2019-04-30T21:54:31.632Z,10.94
2019-04-30T21:57:01.330Z,10.93
2019-04-30T21:59:32.689Z,10.90
2019-04-30T22:02:02.673Z,10.87
2019-04-30T22:04:32.578Z,10.84
2019-04-30T22:07:03.496Z,10.84
2019-04-30T22:09:34.065Z,10.82
2019-04-30T22:12:04.425Z,10.81
2019-04-30T22:14:34.073Z,10.75
2019-04-30T22:17:03.710Z,10.64
2019-04-30T22:19:33.474Z,10.28
2019-04-30T22:22:03.119Z,10.11
2019-04-30T22:24:33.819Z,10.14
2019-04-30T22:27:03.566Z,10.21
2019-04-30T22:29:39.320Z,10.27
2019-04-30T22:32:04.803Z,10.32
2019-04-30T22:34:34.513Z,10.34
2019-04-30T22:37:04.145Z,10.36
2019-04-30T22:39:44.137Z,10.36
2019-04-30T22:42:30.005Z,10.35
2019-04-30T22:45:00.721Z,10.33
2019-04-30T22:47:30.633Z,10.31
2019-04-30T22:50:00.300Z,10.27
2019-04-30T22:52:30.028Z,10.24
2019-04-30T22:54:59.739Z,10.19
2019-04-30T22:57:29.372Z,10.14
2019-04-30T22:59:59.046Z,10.10
2019-04-30T23:02:36.018Z,10.04
2019-04-30T23:05:07.528Z,9.99
2019-04-30T23:07:37.165Z,9.90
2019-04-30T23:10:07.994Z,9.56
2019-04-30T23:12:37.811Z,9.12
2019-04-30T23:15:09.336Z,8.86
2019-04-30T23:17:38.969Z,8.57
2019-04-30T23:20:08.708Z,8.60
2019-04-30T23:22:39.208Z,8.78
2019-04-30T23:25:11.656Z,8.94
2019-04-30T23:27:41.363Z,9.00
2019-04-30T23:30:11.459Z,8.83
2019-04-30T23:32:41.129Z,8.63
2019-04-30T23:35:10.867Z,8.28
2019-04-30T23:37:40.503Z,7.99
2019-04-30T23:40:30.143Z,7.78
2019-04-30T23:42:59.922Z,7.50
2019-04-30T23:45:29.544Z,7.40
2019-04-30T23:47:59.233Z,7.33
2019-04-30T23:50:28.870Z,7.44
2019-04-30T23:52:58.693Z,7.45
2019-04-30T23:55:28.356Z,7.29
2019-04-30T23:57:58.268Z,7.22
